<?xml version="1.0" encoding="UTF-8"?><gpx version="1.1" xmlns:xsd="http://www.w3.org/2001/XMLSchema" xmlns:xsi="http://www.w3.org/2001/XMLSchema-instance" creator="NotARubicon.com All Rights Reserved. https://www.NotARubicon.com" xsi:schemaLocation="http://www.topografix.com/GPX/1/1 http://www.topografix.com/GPX/1/1/gpx.xsd http://www.magellangps.com/mgnext/0/2 http://www.magellangps.com/mgnext/0/2/mgn.xsd http://www.groundspeak.com/cache/1/0 http://www.groundspeak.com/cache/1/0/cache.xsd" xmlns="http://www.topografix.com/GPX/1/1">
<trk>
    <name>TipTop Mountain by The NotARubicon</name>
    <desc></desc>
    <extensions>
      <mgn:extensions xmlns:mgn="http://www.magellangps.com/mgnext/0/2">
        <mgn:difficulty>2</mgn:difficulty>
        <mgn:uuid>b68d0d3d-d4d1-40f2-a22a-583f64bb51e9</mgn:uuid>
        <mgn:proplist>
          <mgn:prop key="Vehicle">9929</mgn:prop>
          <mgn:prop key="VehicleType">,OHV</mgn:prop>
          <mgn:prop key="WD">Must</mgn:prop>
          <mgn:prop key="LO">Must</mgn:prop>
          <mgn:prop key="DIRT"></mgn:prop>
          <mgn:prop key="T_MUD"></mgn:prop>
          <mgn:prop key="T_SAND"></mgn:prop>
          <mgn:prop key="T_SNOW"></mgn:prop>
          <mgn:prop key="T_ICE"></mgn:prop>
          <mgn:prop key="T_WATER"></mgn:prop>
          <mgn:prop key="T_ROCK"></mgn:prop>
          <mgn:prop key="PITCH">10-20</mgn:prop>
          <mgn:prop key="ROLL">0-10</mgn:prop>
          <mgn:prop key="MAGELLAN_OFFROAD_KEY">0</mgn:prop>
          <mgn:prop key="Author">NotARubicon</mgn:prop>
          <mgn:prop key="InstagramUpdate">True</mgn:prop>
          <mgn:prop key="MaxElevation">2264</mgn:prop>
          <mgn:prop key="MinElevation">2060</mgn:prop>
          <mgn:prop key="ElevationChange">203.89844</mgn:prop>
          <mgn:prop key="RecordedTime">1181</mgn:prop>
          <mgn:prop key="Length">2287.828</mgn:prop>
          <mgn:prop key="Type">Trail</mgn:prop>
          <mgn:prop key="Type2">Trail</mgn:prop>
        </mgn:proplist>
      </mgn:extensions>
    </extensions>

    <trkseg>
      <trkpt lat="34.255029" lon="-116.710646">
        <ele>2060.398438</ele>
        <time>2020-06-08T21:10:57.000Z</time>
      </trkpt>
      <trkpt lat="34.255039" lon="-116.709954">
        <ele>2061.500000</ele>
        <time>2020-06-08T21:11:14.000Z</time>
      </trkpt>
      <trkpt lat="34.255054" lon="-116.709532">
        <ele>2064.398438</ele>
        <time>2020-06-08T21:11:20.000Z</time>
      </trkpt>
      <trkpt lat="34.255043" lon="-116.709392">
        <ele>2065.199219</ele>
        <time>2020-06-08T21:11:22.000Z</time>
      </trkpt>
      <trkpt lat="34.254989" lon="-116.708656">
        <ele>2069.898438</ele>
        <time>2020-06-08T21:11:32.000Z</time>
      </trkpt>
      <trkpt lat="34.254942" lon="-116.707874">
        <ele>2076.000000</ele>
        <time>2020-06-08T21:11:42.000Z</time>
      </trkpt>
      <trkpt lat="34.254942" lon="-116.7078">
        <ele>2076.398438</ele>
        <time>2020-06-08T21:11:43.000Z</time>
      </trkpt>
      <trkpt lat="34.254945" lon="-116.707728">
        <ele>2076.796875</ele>
        <time>2020-06-08T21:11:44.000Z</time>
      </trkpt>
      <trkpt lat="34.254954" lon="-116.707581">
        <ele>2077.000000</ele>
        <time>2020-06-08T21:11:46.000Z</time>
      </trkpt>
      <trkpt lat="34.254951" lon="-116.707507">
        <ele>2076.898438</ele>
        <time>2020-06-08T21:11:47.000Z</time>
      </trkpt>
      <trkpt lat="34.254941" lon="-116.707431">
        <ele>2077.296875</ele>
        <time>2020-06-08T21:11:48.000Z</time>
      </trkpt>
      <trkpt lat="34.254891" lon="-116.70716">
        <ele>2079.500000</ele>
        <time>2020-06-08T21:11:52.000Z</time>
      </trkpt>
      <trkpt lat="34.254891" lon="-116.707099">
        <ele>2080.296875</ele>
        <time>2020-06-08T21:11:53.000Z</time>
      </trkpt>
      <trkpt lat="34.254903" lon="-116.706862">
        <ele>2082.796875</ele>
        <time>2020-06-08T21:11:57.000Z</time>
      </trkpt>
      <trkpt lat="34.254907" lon="-116.706811">
        <ele>2084.000000</ele>
        <time>2020-06-08T21:11:59.000Z</time>
      </trkpt>
      <trkpt lat="34.254921" lon="-116.706718">
        <ele>2084.097656</ele>
        <time>2020-06-08T21:12:00.000Z</time>
      </trkpt>
      <trkpt lat="34.254928" lon="-116.706687">
        <ele>2081.296875</ele>
        <time>2020-06-08T21:12:12.000Z</time>
      </trkpt>
      <trkpt lat="34.254939" lon="-116.706595">
        <ele>2080.699219</ele>
        <time>2020-06-08T21:12:13.000Z</time>
      </trkpt>
      <trkpt lat="34.254941" lon="-116.706565">
        <ele>2081.500000</ele>
        <time>2020-06-08T21:12:16.000Z</time>
      </trkpt>
      <trkpt lat="34.254932" lon="-116.706474">
        <ele>2082.097656</ele>
        <time>2020-06-08T21:12:17.000Z</time>
      </trkpt>
      <trkpt lat="34.25492" lon="-116.706446">
        <ele>2083.699219</ele>
        <time>2020-06-08T21:12:20.000Z</time>
      </trkpt>
      <trkpt lat="34.254869" lon="-116.706361">
        <ele>2084.000000</ele>
        <time>2020-06-08T21:12:21.000Z</time>
      </trkpt>
      <trkpt lat="34.25485" lon="-116.706332">
        <ele>2084.597656</ele>
        <time>2020-06-08T21:12:23.000Z</time>
      </trkpt>
      <trkpt lat="34.25468" lon="-116.706088">
        <ele>2086.398438</ele>
        <time>2020-06-08T21:12:31.000Z</time>
      </trkpt>
      <trkpt lat="34.254669" lon="-116.706066">
        <ele>2087.296875</ele>
        <time>2020-06-08T21:12:34.000Z</time>
      </trkpt>
      <trkpt lat="34.254594" lon="-116.705939">
        <ele>2088.796875</ele>
        <time>2020-06-08T21:12:37.000Z</time>
      </trkpt>
      <trkpt lat="34.254426" lon="-116.705643">
        <ele>2094.500000</ele>
        <time>2020-06-08T21:12:49.000Z</time>
      </trkpt>
      <trkpt lat="34.25442" lon="-116.705626">
        <ele>2096.296875</ele>
        <time>2020-06-08T21:12:53.000Z</time>
      </trkpt>
      <trkpt lat="34.254383" lon="-116.70554">
        <ele>2096.500000</ele>
        <time>2020-06-08T21:12:54.000Z</time>
      </trkpt>
      <trkpt lat="34.254372" lon="-116.705518">
        <ele>2098.796875</ele>
        <time>2020-06-08T21:12:58.000Z</time>
      </trkpt>
      <trkpt lat="34.254348" lon="-116.705434">
        <ele>2099.097656</ele>
        <time>2020-06-08T21:12:59.000Z</time>
      </trkpt>
      <trkpt lat="34.254342" lon="-116.705412">
        <ele>2100.796875</ele>
        <time>2020-06-08T21:13:03.000Z</time>
      </trkpt>
      <trkpt lat="34.254303" lon="-116.7053">
        <ele>2101.597656</ele>
        <time>2020-06-08T21:13:05.000Z</time>
      </trkpt>
      <trkpt lat="34.254293" lon="-116.705277">
        <ele>2102.199219</ele>
        <time>2020-06-08T21:13:09.000Z</time>
      </trkpt>
      <trkpt lat="34.254259" lon="-116.705179">
        <ele>2102.796875</ele>
        <time>2020-06-08T21:13:10.000Z</time>
      </trkpt>
      <trkpt lat="34.254251" lon="-116.705157">
        <ele>2104.097656</ele>
        <time>2020-06-08T21:13:14.000Z</time>
      </trkpt>
      <trkpt lat="34.254235" lon="-116.705073">
        <ele>2105.296875</ele>
        <time>2020-06-08T21:13:16.000Z</time>
      </trkpt>
      <trkpt lat="34.25423" lon="-116.705038">
        <ele>2107.000000</ele>
        <time>2020-06-08T21:13:21.000Z</time>
      </trkpt>
      <trkpt lat="34.254228" lon="-116.704952">
        <ele>2107.500000</ele>
        <time>2020-06-08T21:13:23.000Z</time>
      </trkpt>
      <trkpt lat="34.254222" lon="-116.704913">
        <ele>2110.097656</ele>
        <time>2020-06-08T21:13:27.000Z</time>
      </trkpt>
      <trkpt lat="34.254236" lon="-116.704835">
        <ele>2110.199219</ele>
        <time>2020-06-08T21:13:29.000Z</time>
      </trkpt>
      <trkpt lat="34.254252" lon="-116.704796">
        <ele>2110.398438</ele>
        <time>2020-06-08T21:13:32.000Z</time>
      </trkpt>
      <trkpt lat="34.254292" lon="-116.704673">
        <ele>2112.398438</ele>
        <time>2020-06-08T21:13:36.000Z</time>
      </trkpt>
      <trkpt lat="34.254298" lon="-116.704657">
        <ele>2111.796875</ele>
        <time>2020-06-08T21:13:42.000Z</time>
      </trkpt>
      <trkpt lat="34.254346" lon="-116.704562">
        <ele>2111.898438</ele>
        <time>2020-06-08T21:13:43.000Z</time>
      </trkpt>
      <trkpt lat="34.254358" lon="-116.704546">
        <ele>2113.199219</ele>
        <time>2020-06-08T21:13:47.000Z</time>
      </trkpt>
      <trkpt lat="34.254376" lon="-116.704457">
        <ele>2113.500000</ele>
        <time>2020-06-08T21:13:48.000Z</time>
      </trkpt>
      <trkpt lat="34.254373" lon="-116.704434">
        <ele>2114.398438</ele>
        <time>2020-06-08T21:13:52.000Z</time>
      </trkpt>
      <trkpt lat="34.254341" lon="-116.704354">
        <ele>2113.796875</ele>
        <time>2020-06-08T21:13:53.000Z</time>
      </trkpt>
      <trkpt lat="34.254326" lon="-116.704338">
        <ele>2113.097656</ele>
        <time>2020-06-08T21:13:57.000Z</time>
      </trkpt>
      <trkpt lat="34.254244" lon="-116.704314">
        <ele>2113.097656</ele>
        <time>2020-06-08T21:13:58.000Z</time>
      </trkpt>
      <trkpt lat="34.254223" lon="-116.704316">
        <ele>2114.398438</ele>
        <time>2020-06-08T21:14:02.000Z</time>
      </trkpt>
      <trkpt lat="34.254147" lon="-116.704334">
        <ele>2115.398438</ele>
        <time>2020-06-08T21:14:03.000Z</time>
      </trkpt>
      <trkpt lat="34.25413" lon="-116.704343">
        <ele>2115.199219</ele>
        <time>2020-06-08T21:14:08.000Z</time>
      </trkpt>
      <trkpt lat="34.254045" lon="-116.704366">
        <ele>2116.097656</ele>
        <time>2020-06-08T21:14:09.000Z</time>
      </trkpt>
      <trkpt lat="34.25403" lon="-116.704368">
        <ele>2115.898438</ele>
        <time>2020-06-08T21:14:14.000Z</time>
      </trkpt>
      <trkpt lat="34.253951" lon="-116.704371">
        <ele>2116.097656</ele>
        <time>2020-06-08T21:14:15.000Z</time>
      </trkpt>
      <trkpt lat="34.253936" lon="-116.704369">
        <ele>2117.796875</ele>
        <time>2020-06-08T21:14:20.000Z</time>
      </trkpt>
      <trkpt lat="34.253857" lon="-116.704355">
        <ele>2118.597656</ele>
        <time>2020-06-08T21:14:21.000Z</time>
      </trkpt>
      <trkpt lat="34.253842" lon="-116.704349">
        <ele>2121.398438</ele>
        <time>2020-06-08T21:14:26.000Z</time>
      </trkpt>
      <trkpt lat="34.253773" lon="-116.704308">
        <ele>2121.898438</ele>
        <time>2020-06-08T21:14:27.000Z</time>
      </trkpt>
      <trkpt lat="34.253761" lon="-116.704299">
        <ele>2122.597656</ele>
        <time>2020-06-08T21:14:33.000Z</time>
      </trkpt>
      <trkpt lat="34.253704" lon="-116.704228">
        <ele>2122.699219</ele>
        <time>2020-06-08T21:14:34.000Z</time>
      </trkpt>
      <trkpt lat="34.253694" lon="-116.704215">
        <ele>2124.597656</ele>
        <time>2020-06-08T21:14:40.000Z</time>
      </trkpt>
      <trkpt lat="34.253626" lon="-116.704163">
        <ele>2124.597656</ele>
        <time>2020-06-08T21:14:41.000Z</time>
      </trkpt>
      <trkpt lat="34.253614" lon="-116.704159">
        <ele>2126.097656</ele>
        <time>2020-06-08T21:14:49.000Z</time>
      </trkpt>
      <trkpt lat="34.253551" lon="-116.704093">
        <ele>2126.199219</ele>
        <time>2020-06-08T21:14:50.000Z</time>
      </trkpt>
      <trkpt lat="34.253542" lon="-116.70408">
        <ele>2127.296875</ele>
        <time>2020-06-08T21:14:56.000Z</time>
      </trkpt>
      <trkpt lat="34.253479" lon="-116.704016">
        <ele>2127.398438</ele>
        <time>2020-06-08T21:14:57.000Z</time>
      </trkpt>
      <trkpt lat="34.253467" lon="-116.704007">
        <ele>2129.796875</ele>
        <time>2020-06-08T21:15:03.000Z</time>
      </trkpt>
      <trkpt lat="34.2534" lon="-116.70395">
        <ele>2129.796875</ele>
        <time>2020-06-08T21:15:04.000Z</time>
      </trkpt>
      <trkpt lat="34.253391" lon="-116.703936">
        <ele>2129.500000</ele>
        <time>2020-06-08T21:15:21.000Z</time>
      </trkpt>
      <trkpt lat="34.253336" lon="-116.703872">
        <ele>2129.699219</ele>
        <time>2020-06-08T21:15:24.000Z</time>
      </trkpt>
      <trkpt lat="34.253321" lon="-116.703857">
        <ele>2128.597656</ele>
        <time>2020-06-08T21:15:35.000Z</time>
      </trkpt>
      <trkpt lat="34.25327" lon="-116.703791">
        <ele>2128.796875</ele>
        <time>2020-06-08T21:15:38.000Z</time>
      </trkpt>
      <trkpt lat="34.253255" lon="-116.703779">
        <ele>2131.699219</ele>
        <time>2020-06-08T21:15:48.000Z</time>
      </trkpt>
      <trkpt lat="34.253204" lon="-116.703713">
        <ele>2132.097656</ele>
        <time>2020-06-08T21:15:50.000Z</time>
      </trkpt>
      <trkpt lat="34.253191" lon="-116.703697">
        <ele>2133.699219</ele>
        <time>2020-06-08T21:15:56.000Z</time>
      </trkpt>
      <trkpt lat="34.253121" lon="-116.703594">
        <ele>2135.199219</ele>
        <time>2020-06-08T21:16:00.000Z</time>
      </trkpt>
      <trkpt lat="34.253114" lon="-116.703582">
        <ele>2137.699219</ele>
        <time>2020-06-08T21:16:07.000Z</time>
      </trkpt>
      <trkpt lat="34.253048" lon="-116.703456">
        <ele>2138.398438</ele>
        <time>2020-06-08T21:16:11.000Z</time>
      </trkpt>
      <trkpt lat="34.253042" lon="-116.703447">
        <ele>2138.597656</ele>
        <time>2020-06-08T21:16:18.000Z</time>
      </trkpt>
      <trkpt lat="34.252984" lon="-116.703367">
        <ele>2138.898438</ele>
        <time>2020-06-08T21:16:19.000Z</time>
      </trkpt>
      <trkpt lat="34.252977" lon="-116.703354">
        <ele>2140.597656</ele>
        <time>2020-06-08T21:16:26.000Z</time>
      </trkpt>
      <trkpt lat="34.252884" lon="-116.703215">
        <ele>2142.199219</ele>
        <time>2020-06-08T21:16:32.000Z</time>
      </trkpt>
      <trkpt lat="34.25288" lon="-116.703202">
        <ele>2144.398438</ele>
        <time>2020-06-08T21:16:42.000Z</time>
      </trkpt>
      <trkpt lat="34.25284" lon="-116.703024">
        <ele>2145.097656</ele>
        <time>2020-06-08T21:16:49.000Z</time>
      </trkpt>
      <trkpt lat="34.252834" lon="-116.703011">
        <ele>2146.699219</ele>
        <time>2020-06-08T21:16:56.000Z</time>
      </trkpt>
      <trkpt lat="34.252807" lon="-116.702919">
        <ele>2147.699219</ele>
        <time>2020-06-08T21:16:58.000Z</time>
      </trkpt>
      <trkpt lat="34.252781" lon="-116.702793">
        <ele>2148.796875</ele>
        <time>2020-06-08T21:17:10.000Z</time>
      </trkpt>
      <trkpt lat="34.252781" lon="-116.702781">
        <ele>2149.199219</ele>
        <time>2020-06-08T21:17:19.000Z</time>
      </trkpt>
      <trkpt lat="34.252769" lon="-116.702677">
        <ele>2149.296875</ele>
        <time>2020-06-08T21:17:20.000Z</time>
      </trkpt>
      <trkpt lat="34.252767" lon="-116.702664">
        <ele>2151.597656</ele>
        <time>2020-06-08T21:17:29.000Z</time>
      </trkpt>
      <trkpt lat="34.25277" lon="-116.702568">
        <ele>2152.000000</ele>
        <time>2020-06-08T21:17:30.000Z</time>
      </trkpt>
      <trkpt lat="34.252772" lon="-116.702554">
        <ele>2154.398438</ele>
        <time>2020-06-08T21:17:38.000Z</time>
      </trkpt>
      <trkpt lat="34.252763" lon="-116.702447">
        <ele>2154.500000</ele>
        <time>2020-06-08T21:17:39.000Z</time>
      </trkpt>
      <trkpt lat="34.252753" lon="-116.702311">
        <ele>2157.097656</ele>
        <time>2020-06-08T21:17:49.000Z</time>
      </trkpt>
      <trkpt lat="34.25275" lon="-116.702297">
        <ele>2157.398438</ele>
        <time>2020-06-08T21:17:55.000Z</time>
      </trkpt>
      <trkpt lat="34.252698" lon="-116.702085">
        <ele>2157.500000</ele>
        <time>2020-06-08T21:18:05.000Z</time>
      </trkpt>
      <trkpt lat="34.252698" lon="-116.702076">
        <ele>2159.097656</ele>
        <time>2020-06-08T21:18:16.000Z</time>
      </trkpt>
      <trkpt lat="34.252758" lon="-116.701996">
        <ele>2159.398438</ele>
        <time>2020-06-08T21:18:17.000Z</time>
      </trkpt>
      <trkpt lat="34.252769" lon="-116.701992">
        <ele>2159.898438</ele>
        <time>2020-06-08T21:18:25.000Z</time>
      </trkpt>
      <trkpt lat="34.252851" lon="-116.701953">
        <ele>2160.097656</ele>
        <time>2020-06-08T21:18:26.000Z</time>
      </trkpt>
      <trkpt lat="34.252865" lon="-116.701951">
        <ele>2163.898438</ele>
        <time>2020-06-08T21:18:55.000Z</time>
      </trkpt>
      <trkpt lat="34.252944" lon="-116.701938">
        <ele>2163.500000</ele>
        <time>2020-06-08T21:18:57.000Z</time>
      </trkpt>
      <trkpt lat="34.252961" lon="-116.701923">
        <ele>2163.097656</ele>
        <time>2020-06-08T21:19:03.000Z</time>
      </trkpt>
      <trkpt lat="34.253002" lon="-116.701837">
        <ele>2163.296875</ele>
        <time>2020-06-08T21:19:04.000Z</time>
      </trkpt>
      <trkpt lat="34.253001" lon="-116.701815">
        <ele>2164.199219</ele>
        <time>2020-06-08T21:19:09.000Z</time>
      </trkpt>
      <trkpt lat="34.252984" lon="-116.701714">
        <ele>2164.398438</ele>
        <time>2020-06-08T21:19:10.000Z</time>
      </trkpt>
      <trkpt lat="34.25298" lon="-116.701694">
        <ele>2166.000000</ele>
        <time>2020-06-08T21:19:15.000Z</time>
      </trkpt>
      <trkpt lat="34.252953" lon="-116.7016">
        <ele>2165.898438</ele>
        <time>2020-06-08T21:19:16.000Z</time>
      </trkpt>
      <trkpt lat="34.252945" lon="-116.701581">
        <ele>2166.597656</ele>
        <time>2020-06-08T21:19:22.000Z</time>
      </trkpt>
      <trkpt lat="34.252903" lon="-116.701495">
        <ele>2166.597656</ele>
        <time>2020-06-08T21:19:23.000Z</time>
      </trkpt>
      <trkpt lat="34.252899" lon="-116.70148">
        <ele>2167.398438</ele>
        <time>2020-06-08T21:19:29.000Z</time>
      </trkpt>
      <trkpt lat="34.252865" lon="-116.701386">
        <ele>2167.597656</ele>
        <time>2020-06-08T21:19:30.000Z</time>
      </trkpt>
      <trkpt lat="34.252859" lon="-116.70137">
        <ele>2167.097656</ele>
        <time>2020-06-08T21:19:35.000Z</time>
      </trkpt>
      <trkpt lat="34.252806" lon="-116.701286">
        <ele>2166.898438</ele>
        <time>2020-06-08T21:19:36.000Z</time>
      </trkpt>
      <trkpt lat="34.252794" lon="-116.70127">
        <ele>2168.500000</ele>
        <time>2020-06-08T21:19:41.000Z</time>
      </trkpt>
      <trkpt lat="34.252727" lon="-116.701122">
        <ele>2169.199219</ele>
        <time>2020-06-08T21:19:45.000Z</time>
      </trkpt>
      <trkpt lat="34.252718" lon="-116.701106">
        <ele>2170.296875</ele>
        <time>2020-06-08T21:19:50.000Z</time>
      </trkpt>
      <trkpt lat="34.252667" lon="-116.701036">
        <ele>2170.796875</ele>
        <time>2020-06-08T21:19:51.000Z</time>
      </trkpt>
      <trkpt lat="34.252656" lon="-116.701024">
        <ele>2172.000000</ele>
        <time>2020-06-08T21:19:57.000Z</time>
      </trkpt>
      <trkpt lat="34.252574" lon="-116.700923">
        <ele>2172.699219</ele>
        <time>2020-06-08T21:20:00.000Z</time>
      </trkpt>
      <trkpt lat="34.252564" lon="-116.700906">
        <ele>2173.597656</ele>
        <time>2020-06-08T21:20:05.000Z</time>
      </trkpt>
      <trkpt lat="34.252504" lon="-116.700835">
        <ele>2174.000000</ele>
        <time>2020-06-08T21:20:06.000Z</time>
      </trkpt>
      <trkpt lat="34.252493" lon="-116.700821">
        <ele>2175.000000</ele>
        <time>2020-06-08T21:20:11.000Z</time>
      </trkpt>
      <trkpt lat="34.25242" lon="-116.70076">
        <ele>2175.398438</ele>
        <time>2020-06-08T21:20:12.000Z</time>
      </trkpt>
      <trkpt lat="34.252409" lon="-116.700745">
        <ele>2175.199219</ele>
        <time>2020-06-08T21:20:17.000Z</time>
      </trkpt>
      <trkpt lat="34.252311" lon="-116.700657">
        <ele>2175.597656</ele>
        <time>2020-06-08T21:20:19.000Z</time>
      </trkpt>
      <trkpt lat="34.252296" lon="-116.700633">
        <ele>2177.097656</ele>
        <time>2020-06-08T21:20:23.000Z</time>
      </trkpt>
      <trkpt lat="34.252232" lon="-116.700532">
        <ele>2177.699219</ele>
        <time>2020-06-08T21:20:26.000Z</time>
      </trkpt>
      <trkpt lat="34.252219" lon="-116.700517">
        <ele>2178.699219</ele>
        <time>2020-06-08T21:20:29.000Z</time>
      </trkpt>
      <trkpt lat="34.252109" lon="-116.70036">
        <ele>2179.199219</ele>
        <time>2020-06-08T21:20:34.000Z</time>
      </trkpt>
      <trkpt lat="34.252091" lon="-116.700339">
        <ele>2180.097656</ele>
        <time>2020-06-08T21:20:38.000Z</time>
      </trkpt>
      <trkpt lat="34.25204" lon="-116.700256">
        <ele>2180.199219</ele>
        <time>2020-06-08T21:20:39.000Z</time>
      </trkpt>
      <trkpt lat="34.251979" lon="-116.700146">
        <ele>2181.597656</ele>
        <time>2020-06-08T21:20:45.000Z</time>
      </trkpt>
      <trkpt lat="34.251967" lon="-116.700132">
        <ele>2183.398438</ele>
        <time>2020-06-08T21:20:50.000Z</time>
      </trkpt>
      <trkpt lat="34.251904" lon="-116.700055">
        <ele>2183.398438</ele>
        <time>2020-06-08T21:20:51.000Z</time>
      </trkpt>
      <trkpt lat="34.251893" lon="-116.700037">
        <ele>2183.597656</ele>
        <time>2020-06-08T21:20:55.000Z</time>
      </trkpt>
      <trkpt lat="34.251828" lon="-116.699937">
        <ele>2184.296875</ele>
        <time>2020-06-08T21:20:57.000Z</time>
      </trkpt>
      <trkpt lat="34.25163" lon="-116.699685">
        <ele>2190.097656</ele>
        <time>2020-06-08T21:21:10.000Z</time>
      </trkpt>
      <trkpt lat="34.251485" lon="-116.699537">
        <ele>2193.597656</ele>
        <time>2020-06-08T21:21:18.000Z</time>
      </trkpt>
      <trkpt lat="34.251463" lon="-116.699518">
        <ele>2193.296875</ele>
        <time>2020-06-08T21:21:21.000Z</time>
      </trkpt>
      <trkpt lat="34.251394" lon="-116.699468">
        <ele>2193.500000</ele>
        <time>2020-06-08T21:21:22.000Z</time>
      </trkpt>
      <trkpt lat="34.251372" lon="-116.699457">
        <ele>2194.296875</ele>
        <time>2020-06-08T21:21:25.000Z</time>
      </trkpt>
      <trkpt lat="34.251188" lon="-116.699361">
        <ele>2195.398438</ele>
        <time>2020-06-08T21:21:30.000Z</time>
      </trkpt>
      <trkpt lat="34.25111" lon="-116.699301">
        <ele>2195.597656</ele>
        <time>2020-06-08T21:21:33.000Z</time>
      </trkpt>
      <trkpt lat="34.251019" lon="-116.699223">
        <ele>2195.500000</ele>
        <time>2020-06-08T21:21:37.000Z</time>
      </trkpt>
      <trkpt lat="34.250997" lon="-116.69921">
        <ele>2195.199219</ele>
        <time>2020-06-08T21:21:40.000Z</time>
      </trkpt>
      <trkpt lat="34.250926" lon="-116.699188">
        <ele>2195.398438</ele>
        <time>2020-06-08T21:21:41.000Z</time>
      </trkpt>
      <trkpt lat="34.250903" lon="-116.699189">
        <ele>2195.699219</ele>
        <time>2020-06-08T21:21:45.000Z</time>
      </trkpt>
      <trkpt lat="34.250822" lon="-116.699208">
        <ele>2195.597656</ele>
        <time>2020-06-08T21:21:46.000Z</time>
      </trkpt>
      <trkpt lat="34.250699" lon="-116.699241">
        <ele>2196.597656</ele>
        <time>2020-06-08T21:21:59.000Z</time>
      </trkpt>
      <trkpt lat="34.250683" lon="-116.699239">
        <ele>2196.796875</ele>
        <time>2020-06-08T21:22:03.000Z</time>
      </trkpt>
      <trkpt lat="34.250597" lon="-116.699205">
        <ele>2196.699219</ele>
        <time>2020-06-08T21:22:04.000Z</time>
      </trkpt>
      <trkpt lat="34.250569" lon="-116.699188">
        <ele>2196.597656</ele>
        <time>2020-06-08T21:22:06.000Z</time>
      </trkpt>
      <trkpt lat="34.250515" lon="-116.699148">
        <ele>2196.597656</ele>
        <time>2020-06-08T21:22:07.000Z</time>
      </trkpt>
      <trkpt lat="34.250413" lon="-116.69906">
        <ele>2196.398438</ele>
        <time>2020-06-08T21:22:11.000Z</time>
      </trkpt>
      <trkpt lat="34.250338" lon="-116.698981">
        <ele>2196.597656</ele>
        <time>2020-06-08T21:22:14.000Z</time>
      </trkpt>
      <trkpt lat="34.250316" lon="-116.69895">
        <ele>2197.097656</ele>
        <time>2020-06-08T21:22:16.000Z</time>
      </trkpt>
      <trkpt lat="34.250238" lon="-116.698828">
        <ele>2197.597656</ele>
        <time>2020-06-08T21:22:19.000Z</time>
      </trkpt>
      <trkpt lat="34.250214" lon="-116.698801">
        <ele>2197.898438</ele>
        <time>2020-06-08T21:22:21.000Z</time>
      </trkpt>
      <trkpt lat="34.250139" lon="-116.698701">
        <ele>2198.898438</ele>
        <time>2020-06-08T21:22:24.000Z</time>
      </trkpt>
      <trkpt lat="34.250125" lon="-116.69868">
        <ele>2200.597656</ele>
        <time>2020-06-08T21:22:29.000Z</time>
      </trkpt>
      <trkpt lat="34.250097" lon="-116.698582">
        <ele>2200.898438</ele>
        <time>2020-06-08T21:22:30.000Z</time>
      </trkpt>
      <trkpt lat="34.250092" lon="-116.698561">
        <ele>2202.296875</ele>
        <time>2020-06-08T21:22:34.000Z</time>
      </trkpt>
      <trkpt lat="34.250099" lon="-116.698442">
        <ele>2202.796875</ele>
        <time>2020-06-08T21:22:35.000Z</time>
      </trkpt>
      <trkpt lat="34.250105" lon="-116.69841">
        <ele>2203.500000</ele>
        <time>2020-06-08T21:22:38.000Z</time>
      </trkpt>
      <trkpt lat="34.250149" lon="-116.698205">
        <ele>2203.898438</ele>
        <time>2020-06-08T21:22:43.000Z</time>
      </trkpt>
      <trkpt lat="34.250151" lon="-116.698173">
        <ele>2204.199219</ele>
        <time>2020-06-08T21:22:46.000Z</time>
      </trkpt>
      <trkpt lat="34.250146" lon="-116.698068">
        <ele>2204.398438</ele>
        <time>2020-06-08T21:22:47.000Z</time>
      </trkpt>
      <trkpt lat="34.250144" lon="-116.698039">
        <ele>2205.699219</ele>
        <time>2020-06-08T21:22:52.000Z</time>
      </trkpt>
      <trkpt lat="34.250145" lon="-116.697958">
        <ele>2205.898438</ele>
        <time>2020-06-08T21:22:54.000Z</time>
      </trkpt>
      <trkpt lat="34.25015" lon="-116.697821">
        <ele>2206.199219</ele>
        <time>2020-06-08T21:22:58.000Z</time>
      </trkpt>
      <trkpt lat="34.250154" lon="-116.69779">
        <ele>2205.597656</ele>
        <time>2020-06-08T21:23:01.000Z</time>
      </trkpt>
      <trkpt lat="34.250177" lon="-116.697704">
        <ele>2205.296875</ele>
        <time>2020-06-08T21:23:02.000Z</time>
      </trkpt>
      <trkpt lat="34.250185" lon="-116.69768">
        <ele>2203.000000</ele>
        <time>2020-06-08T21:23:22.000Z</time>
      </trkpt>
      <trkpt lat="34.250221" lon="-116.697587">
        <ele>2203.097656</ele>
        <time>2020-06-08T21:23:23.000Z</time>
      </trkpt>
      <trkpt lat="34.250234" lon="-116.697563">
        <ele>2204.597656</ele>
        <time>2020-06-08T21:23:26.000Z</time>
      </trkpt>
      <trkpt lat="34.250287" lon="-116.697501">
        <ele>2204.796875</ele>
        <time>2020-06-08T21:23:27.000Z</time>
      </trkpt>
      <trkpt lat="34.250306" lon="-116.697485">
        <ele>2205.097656</ele>
        <time>2020-06-08T21:23:31.000Z</time>
      </trkpt>
      <trkpt lat="34.250357" lon="-116.697408">
        <ele>2205.199219</ele>
        <time>2020-06-08T21:23:32.000Z</time>
      </trkpt>
      <trkpt lat="34.250367" lon="-116.697381">
        <ele>2205.699219</ele>
        <time>2020-06-08T21:23:35.000Z</time>
      </trkpt>
      <trkpt lat="34.250373" lon="-116.697284">
        <ele>2205.500000</ele>
        <time>2020-06-08T21:23:36.000Z</time>
      </trkpt>
      <trkpt lat="34.250367" lon="-116.697252">
        <ele>2205.898438</ele>
        <time>2020-06-08T21:23:39.000Z</time>
      </trkpt>
      <trkpt lat="34.250334" lon="-116.697165">
        <ele>2206.097656</ele>
        <time>2020-06-08T21:23:40.000Z</time>
      </trkpt>
      <trkpt lat="34.25032" lon="-116.697141">
        <ele>2206.000000</ele>
        <time>2020-06-08T21:23:43.000Z</time>
      </trkpt>
      <trkpt lat="34.25027" lon="-116.697068">
        <ele>2205.898438</ele>
        <time>2020-06-08T21:23:44.000Z</time>
      </trkpt>
      <trkpt lat="34.250196" lon="-116.696967">
        <ele>2206.398438</ele>
        <time>2020-06-08T21:23:48.000Z</time>
      </trkpt>
      <trkpt lat="34.250181" lon="-116.696937">
        <ele>2207.796875</ele>
        <time>2020-06-08T21:23:51.000Z</time>
      </trkpt>
      <trkpt lat="34.250145" lon="-116.696844">
        <ele>2208.398438</ele>
        <time>2020-06-08T21:23:52.000Z</time>
      </trkpt>
      <trkpt lat="34.250134" lon="-116.696812">
        <ele>2210.199219</ele>
        <time>2020-06-08T21:23:55.000Z</time>
      </trkpt>
      <trkpt lat="34.250115" lon="-116.696716">
        <ele>2210.398438</ele>
        <time>2020-06-08T21:23:56.000Z</time>
      </trkpt>
      <trkpt lat="34.25011" lon="-116.696683">
        <ele>2211.097656</ele>
        <time>2020-06-08T21:23:59.000Z</time>
      </trkpt>
      <trkpt lat="34.250104" lon="-116.696578">
        <ele>2211.398438</ele>
        <time>2020-06-08T21:24:00.000Z</time>
      </trkpt>
      <trkpt lat="34.250087" lon="-116.696309">
        <ele>2213.296875</ele>
        <time>2020-06-08T21:24:08.000Z</time>
      </trkpt>
      <trkpt lat="34.25009" lon="-116.696282">
        <ele>2213.699219</ele>
        <time>2020-06-08T21:24:12.000Z</time>
      </trkpt>
      <trkpt lat="34.25009" lon="-116.696168">
        <ele>2213.796875</ele>
        <time>2020-06-08T21:24:13.000Z</time>
      </trkpt>
      <trkpt lat="34.250087" lon="-116.696135">
        <ele>2214.000000</ele>
        <time>2020-06-08T21:24:16.000Z</time>
      </trkpt>
      <trkpt lat="34.250074" lon="-116.696033">
        <ele>2213.898438</ele>
        <time>2020-06-08T21:24:17.000Z</time>
      </trkpt>
      <trkpt lat="34.250037" lon="-116.695746">
        <ele>2213.000000</ele>
        <time>2020-06-08T21:24:25.000Z</time>
      </trkpt>
      <trkpt lat="34.250038" lon="-116.695713">
        <ele>2213.000000</ele>
        <time>2020-06-08T21:24:28.000Z</time>
      </trkpt>
      <trkpt lat="34.250043" lon="-116.695604">
        <ele>2213.097656</ele>
        <time>2020-06-08T21:24:30.000Z</time>
      </trkpt>
      <trkpt lat="34.25004" lon="-116.69558">
        <ele>2213.597656</ele>
        <time>2020-06-08T21:24:33.000Z</time>
      </trkpt>
      <trkpt lat="34.249999" lon="-116.695326">
        <ele>2215.296875</ele>
        <time>2020-06-08T21:24:39.000Z</time>
      </trkpt>
      <trkpt lat="34.249989" lon="-116.695296">
        <ele>2215.796875</ele>
        <time>2020-06-08T21:24:42.000Z</time>
      </trkpt>
      <trkpt lat="34.249849" lon="-116.694844">
        <ele>2217.699219</ele>
        <time>2020-06-08T21:24:55.000Z</time>
      </trkpt>
      <trkpt lat="34.24985" lon="-116.694842">
        <ele>2218.398438</ele>
        <time>2020-06-08T21:25:17.000Z</time>
      </trkpt>
      <trkpt lat="34.249852" lon="-116.694722">
        <ele>2218.199219</ele>
        <time>2020-06-08T21:25:18.000Z</time>
      </trkpt>
      <trkpt lat="34.249866" lon="-116.694706">
        <ele>2218.699219</ele>
        <time>2020-06-08T21:25:23.000Z</time>
      </trkpt>
      <trkpt lat="34.249944" lon="-116.694682">
        <ele>2218.699219</ele>
        <time>2020-06-08T21:25:24.000Z</time>
      </trkpt>
      <trkpt lat="34.24996" lon="-116.694677">
        <ele>2220.398438</ele>
        <time>2020-06-08T21:25:29.000Z</time>
      </trkpt>
      <trkpt lat="34.250057" lon="-116.694658">
        <ele>2221.199219</ele>
        <time>2020-06-08T21:25:31.000Z</time>
      </trkpt>
      <trkpt lat="34.250165" lon="-116.694654">
        <ele>2222.597656</ele>
        <time>2020-06-08T21:25:38.000Z</time>
      </trkpt>
      <trkpt lat="34.250175" lon="-116.694656">
        <ele>2225.097656</ele>
        <time>2020-06-08T21:25:47.000Z</time>
      </trkpt>
      <trkpt lat="34.250264" lon="-116.694654">
        <ele>2225.296875</ele>
        <time>2020-06-08T21:25:48.000Z</time>
      </trkpt>
      <trkpt lat="34.250273" lon="-116.694653">
        <ele>2226.500000</ele>
        <time>2020-06-08T21:25:55.000Z</time>
      </trkpt>
      <trkpt lat="34.25042" lon="-116.694637">
        <ele>2227.500000</ele>
        <time>2020-06-08T21:26:01.000Z</time>
      </trkpt>
      <trkpt lat="34.250433" lon="-116.694632">
        <ele>2227.898438</ele>
        <time>2020-06-08T21:26:08.000Z</time>
      </trkpt>
      <trkpt lat="34.250499" lon="-116.694558">
        <ele>2228.000000</ele>
        <time>2020-06-08T21:26:09.000Z</time>
      </trkpt>
      <trkpt lat="34.250503" lon="-116.694538">
        <ele>2228.597656</ele>
        <time>2020-06-08T21:26:14.000Z</time>
      </trkpt>
      <trkpt lat="34.250522" lon="-116.694389">
        <ele>2229.000000</ele>
        <time>2020-06-08T21:26:17.000Z</time>
      </trkpt>
      <trkpt lat="34.250528" lon="-116.694361">
        <ele>2229.597656</ele>
        <time>2020-06-08T21:26:20.000Z</time>
      </trkpt>
      <trkpt lat="34.250551" lon="-116.694262">
        <ele>2229.898438</ele>
        <time>2020-06-08T21:26:21.000Z</time>
      </trkpt>
      <trkpt lat="34.250564" lon="-116.694235">
        <ele>2231.597656</ele>
        <time>2020-06-08T21:26:24.000Z</time>
      </trkpt>
      <trkpt lat="34.250621" lon="-116.694165">
        <ele>2231.796875</ele>
        <time>2020-06-08T21:26:25.000Z</time>
      </trkpt>
      <trkpt lat="34.250636" lon="-116.694151">
        <ele>2233.199219</ele>
        <time>2020-06-08T21:26:35.000Z</time>
      </trkpt>
      <trkpt lat="34.250705" lon="-116.694108">
        <ele>2233.000000</ele>
        <time>2020-06-08T21:26:36.000Z</time>
      </trkpt>
      <trkpt lat="34.250719" lon="-116.694101">
        <ele>2233.500000</ele>
        <time>2020-06-08T21:26:43.000Z</time>
      </trkpt>
      <trkpt lat="34.25079" lon="-116.694072">
        <ele>2233.699219</ele>
        <time>2020-06-08T21:26:45.000Z</time>
      </trkpt>
      <trkpt lat="34.25081" lon="-116.69406">
        <ele>2235.898438</ele>
        <time>2020-06-08T21:26:51.000Z</time>
      </trkpt>
      <trkpt lat="34.25087" lon="-116.694019">
        <ele>2235.898438</ele>
        <time>2020-06-08T21:26:54.000Z</time>
      </trkpt>
      <trkpt lat="34.250899" lon="-116.693998">
        <ele>2236.000000</ele>
        <time>2020-06-08T21:26:58.000Z</time>
      </trkpt>
      <trkpt lat="34.250953" lon="-116.693978">
        <ele>2236.398438</ele>
        <time>2020-06-08T21:27:01.000Z</time>
      </trkpt>
      <trkpt lat="34.251004" lon="-116.693982">
        <ele>2236.796875</ele>
        <time>2020-06-08T21:27:04.000Z</time>
      </trkpt>
      <trkpt lat="34.251049" lon="-116.693975">
        <ele>2237.597656</ele>
        <time>2020-06-08T21:27:09.000Z</time>
      </trkpt>
      <trkpt lat="34.251105" lon="-116.693951">
        <ele>2238.500000</ele>
        <time>2020-06-08T21:27:12.000Z</time>
      </trkpt>
      <trkpt lat="34.251136" lon="-116.693924">
        <ele>2239.296875</ele>
        <time>2020-06-08T21:27:17.000Z</time>
      </trkpt>
      <trkpt lat="34.251175" lon="-116.693876">
        <ele>2240.199219</ele>
        <time>2020-06-08T21:27:21.000Z</time>
      </trkpt>
      <trkpt lat="34.251189" lon="-116.693833">
        <ele>2241.699219</ele>
        <time>2020-06-08T21:27:26.000Z</time>
      </trkpt>
      <trkpt lat="34.251194" lon="-116.693758">
        <ele>2242.398438</ele>
        <time>2020-06-08T21:27:28.000Z</time>
      </trkpt>
      <trkpt lat="34.251199" lon="-116.693724">
        <ele>2242.699219</ele>
        <time>2020-06-08T21:27:32.000Z</time>
      </trkpt>
      <trkpt lat="34.251228" lon="-116.693645">
        <ele>2243.199219</ele>
        <time>2020-06-08T21:27:34.000Z</time>
      </trkpt>
      <trkpt lat="34.251251" lon="-116.693618">
        <ele>2243.597656</ele>
        <time>2020-06-08T21:27:39.000Z</time>
      </trkpt>
      <trkpt lat="34.251309" lon="-116.693595">
        <ele>2243.296875</ele>
        <time>2020-06-08T21:27:42.000Z</time>
      </trkpt>
      <trkpt lat="34.251344" lon="-116.693591">
        <ele>2243.699219</ele>
        <time>2020-06-08T21:27:46.000Z</time>
      </trkpt>
      <trkpt lat="34.25141" lon="-116.693609">
        <ele>2243.898438</ele>
        <time>2020-06-08T21:27:48.000Z</time>
      </trkpt>
      <trkpt lat="34.251445" lon="-116.693626">
        <ele>2243.597656</ele>
        <time>2020-06-08T21:27:51.000Z</time>
      </trkpt>
      <trkpt lat="34.251563" lon="-116.693687">
        <ele>2244.097656</ele>
        <time>2020-06-08T21:27:56.000Z</time>
      </trkpt>
      <trkpt lat="34.251579" lon="-116.693691">
        <ele>2244.500000</ele>
        <time>2020-06-08T21:28:01.000Z</time>
      </trkpt>
      <trkpt lat="34.251658" lon="-116.693674">
        <ele>2244.398438</ele>
        <time>2020-06-08T21:28:02.000Z</time>
      </trkpt>
      <trkpt lat="34.251675" lon="-116.693671">
        <ele>2245.199219</ele>
        <time>2020-06-08T21:28:07.000Z</time>
      </trkpt>
      <trkpt lat="34.251761" lon="-116.693684">
        <ele>2245.398438</ele>
        <time>2020-06-08T21:28:08.000Z</time>
      </trkpt>
      <trkpt lat="34.251776" lon="-116.693689">
        <ele>2245.796875</ele>
        <time>2020-06-08T21:28:13.000Z</time>
      </trkpt>
      <trkpt lat="34.251878" lon="-116.69373">
        <ele>2245.898438</ele>
        <time>2020-06-08T21:28:15.000Z</time>
      </trkpt>
      <trkpt lat="34.25204" lon="-116.693824">
        <ele>2247.398438</ele>
        <time>2020-06-08T21:28:25.000Z</time>
      </trkpt>
      <trkpt lat="34.252057" lon="-116.693841">
        <ele>2248.898438</ele>
        <time>2020-06-08T21:28:29.000Z</time>
      </trkpt>
      <trkpt lat="34.2521" lon="-116.693909">
        <ele>2249.796875</ele>
        <time>2020-06-08T21:28:31.000Z</time>
      </trkpt>
      <trkpt lat="34.252165" lon="-116.694026">
        <ele>2251.898438</ele>
        <time>2020-06-08T21:28:37.000Z</time>
      </trkpt>
      <trkpt lat="34.252174" lon="-116.694047">
        <ele>2253.097656</ele>
        <time>2020-06-08T21:28:41.000Z</time>
      </trkpt>
      <trkpt lat="34.252189" lon="-116.694134">
        <ele>2253.296875</ele>
        <time>2020-06-08T21:28:42.000Z</time>
      </trkpt>
      <trkpt lat="34.252188" lon="-116.694156">
        <ele>2253.796875</ele>
        <time>2020-06-08T21:28:47.000Z</time>
      </trkpt>
      <trkpt lat="34.252186" lon="-116.694258">
        <ele>2254.097656</ele>
        <time>2020-06-08T21:28:48.000Z</time>
      </trkpt>
      <trkpt lat="34.252189" lon="-116.694278">
        <ele>2255.199219</ele>
        <time>2020-06-08T21:28:53.000Z</time>
      </trkpt>
      <trkpt lat="34.252215" lon="-116.694382">
        <ele>2255.296875</ele>
        <time>2020-06-08T21:28:54.000Z</time>
      </trkpt>
      <trkpt lat="34.252223" lon="-116.6944">
        <ele>2256.296875</ele>
        <time>2020-06-08T21:28:59.000Z</time>
      </trkpt>
      <trkpt lat="34.252288" lon="-116.694458">
        <ele>2256.398438</ele>
        <time>2020-06-08T21:29:00.000Z</time>
      </trkpt>
      <trkpt lat="34.252301" lon="-116.694462">
        <ele>2257.199219</ele>
        <time>2020-06-08T21:29:06.000Z</time>
      </trkpt>
      <trkpt lat="34.252401" lon="-116.694502">
        <ele>2257.199219</ele>
        <time>2020-06-08T21:29:08.000Z</time>
      </trkpt>
      <trkpt lat="34.252416" lon="-116.694509">
        <ele>2257.898438</ele>
        <time>2020-06-08T21:29:14.000Z</time>
      </trkpt>
      <trkpt lat="34.252504" lon="-116.694553">
        <ele>2258.000000</ele>
        <time>2020-06-08T21:29:16.000Z</time>
      </trkpt>
      <trkpt lat="34.252517" lon="-116.694561">
        <ele>2258.199219</ele>
        <time>2020-06-08T21:29:21.000Z</time>
      </trkpt>
      <trkpt lat="34.252594" lon="-116.69459">
        <ele>2258.199219</ele>
        <time>2020-06-08T21:29:22.000Z</time>
      </trkpt>
      <trkpt lat="34.252609" lon="-116.694592">
        <ele>2258.796875</ele>
        <time>2020-06-08T21:29:27.000Z</time>
      </trkpt>
      <trkpt lat="34.25279" lon="-116.69463">
        <ele>2259.898438</ele>
        <time>2020-06-08T21:29:35.000Z</time>
      </trkpt>
      <trkpt lat="34.252803" lon="-116.69463">
        <ele>2261.199219</ele>
        <time>2020-06-08T21:29:42.000Z</time>
      </trkpt>
      <trkpt lat="34.252891" lon="-116.694666">
        <ele>2261.500000</ele>
        <time>2020-06-08T21:29:43.000Z</time>
      </trkpt>
      <trkpt lat="34.253014" lon="-116.694718">
        <ele>2262.898438</ele>
        <time>2020-06-08T21:29:52.000Z</time>
      </trkpt>
      <trkpt lat="34.253029" lon="-116.69472">
        <ele>2263.796875</ele>
        <time>2020-06-08T21:29:58.000Z</time>
      </trkpt>
      <trkpt lat="34.253108" lon="-116.694717">
        <ele>2263.898438</ele>
        <time>2020-06-08T21:29:59.000Z</time>
      </trkpt>
      <trkpt lat="34.253123" lon="-116.694721">
        <ele>2264.398438</ele>
        <time>2020-06-08T21:30:04.000Z</time>
      </trkpt>
      <trkpt lat="34.253218" lon="-116.694759">
        <ele>2264.597656</ele>
        <time>2020-06-08T21:30:07.000Z</time>
      </trkpt>
      <trkpt lat="34.253265" lon="-116.694813">
        <ele>2264.296875</ele>
        <time>2020-06-08T21:30:38.000Z</time>
      </trkpt>
      <trkpt lat="34.253265" lon="-116.694813">
        <ele>2264.296875</ele>
        <time>2020-06-08T21:30:38.000Z</time>
      </trkpt>
    </trkseg>
</trk>
</gpx>